sensor_id;sensor_type;location;lat;lon;timestamp;P1;durP1;ratioP1;P2;durP2;ratioP2
12118;SDS011;6123;48.864;9.200;2024-01-27T00:02:06;4.57;;;2.75;;
12118;SDS011;6123;48.864;9.200;2024-01-27T00:04:31;4.97;;;2.00;;
12118;SDS011;6123;48.864;9.200;2024-01-27T00:06:56;3.45;;;2.35;;
12118;SDS011;6123;48.864;9.200;2024-01-27T00:09:22;3.75;;;2.38;;
12118;SDS011;6123;48.864;9.200;2024-01-27T00:11:48;3.80;;;1.90;;
12118;SDS011;6123;48.864;9.200;2024-01-27T00:14:13;4.38;;;2.47;;
12118;SDS011;6123;48.864;9.200;2024-01-27T00:16:38;5.05;;;1.90;;
12118;SDS011;6123;48.864;9.200;2024-01-27T00:19:04;3.13;;;1.67;;
12118;SDS011;6123;48.864;9.200;2024-01-27T00:21:29;5.60;;;2.60;;
12118;SDS011;6123;48.864;9.200;2024-01-27T00:23:55;3.22;;;2.00;;
12118;SDS011;6123;48.864;9.200;2024-01-27T00:26:25;3.47;;;2.30;;
12118;SDS011;6123;48.864;9.200;2024-01-27T00:28:51;2.78;;;2.28;;
12118;SDS011;6123;48.864;9.200;2024-01-27T00:31:17;4.38;;;2.25;;
12118;SDS011;6123;48.864;9.200;2024-01-27T00:33:42;3.75;;;2.20;;
12118;SDS011;6123;48.864;9.200;2024-01-27T00:36:08;4.70;;;2.15;;
12118;SDS011;6123;48.864;9.200;2024-01-27T00:38:33;4.65;;;1.95;;
12118;SDS011;6123;48.864;9.200;2024-01-27T00:40:59;3.85;;;2.55;;
12118;SDS011;6123;48.864;9.200;2024-01-27T00:43:24;3.92;;;2.38;;
12118;SDS011;6123;48.864;9.200;2024-01-27T00:45:50;3.65;;;1.90;;
12118;SDS011;6123;48.864;9.200;2024-01-27T00:48:15;3.90;;;2.47;;
12118;SDS011;6123;48.864;9.200;2024-01-27T00:50:41;2.65;;;2.15;;
12118;SDS011;6123;48.864;9.200;2024-01-27T00:53:06;4.82;;;2.50;;
12118;SDS011;6123;48.864;9.200;2024-01-27T00:55:32;3.30;;;2.40;;
12118;SDS011;6123;48.864;9.200;2024-01-27T00:57:57;4.10;;;2.28;;
12118;SDS011;6123;48.864;9.200;2024-01-27T01:00:23;3.40;;;2.40;;
12118;SDS011;6123;48.864;9.200;2024-01-27T01:02:48;3.13;;;2.15;;
12118;SDS011;6123;48.864;9.200;2024-01-27T01:05:14;3.80;;;2.20;;
12118;SDS011;6123;48.864;9.200;2024-01-27T01:07:39;5.53;;;2.42;;
12118;SDS011;6123;48.864;9.200;2024-01-27T01:10:05;4.70;;;2.53;;
12118;SDS011;6123;48.864;9.200;2024-01-27T01:12:31;2.92;;;2.05;;
12118;SDS011;6123;48.864;9.200;2024-01-27T01:14:56;3.25;;;2.42;;
12118;SDS011;6123;48.864;9.200;2024-01-27T01:17:22;4.03;;;2.17;;
12118;SDS011;6123;48.864;9.200;2024-01-27T01:19:48;3.42;;;2.50;;
12118;SDS011;6123;48.864;9.200;2024-01-27T01:22:14;2.67;;;2.03;;
12118;SDS011;6123;48.864;9.200;2024-01-27T01:24:39;3.28;;;2.50;;
12118;SDS011;6123;48.864;9.200;2024-01-27T01:27:04;3.45;;;2.10;;
12118;SDS011;6123;48.864;9.200;2024-01-27T01:29:30;3.03;;;2.53;;
12118;SDS011;6123;48.864;9.200;2024-01-27T01:31:56;3.53;;;2.55;;
12118;SDS011;6123;48.864;9.200;2024-01-27T01:34:22;4.30;;;2.20;;
12118;SDS011;6123;48.864;9.200;2024-01-27T01:36:47;2.92;;;2.58;;
12118;SDS011;6123;48.864;9.200;2024-01-27T01:39:13;4.25;;;2.50;;
12118;SDS011;6123;48.864;9.200;2024-01-27T01:41:39;4.55;;;3.00;;
12118;SDS011;6123;48.864;9.200;2024-01-27T01:44:05;5.35;;;2.85;;
12118;SDS011;6123;48.864;9.200;2024-01-27T01:46:31;4.93;;;2.80;;
12118;SDS011;6123;48.864;9.200;2024-01-27T01:48:57;2.53;;;2.00;;
12118;SDS011;6123;48.864;9.200;2024-01-27T01:51:22;3.92;;;2.47;;
12118;SDS011;6123;48.864;9.200;2024-01-27T01:53:49;5.18;;;3.03;;
12118;SDS011;6123;48.864;9.200;2024-01-27T01:56:15;5.68;;;2.65;;
12118;SDS011;6123;48.864;9.200;2024-01-27T01:58:40;4.55;;;2.63;;
12118;SDS011;6123;48.864;9.200;2024-01-27T02:01:06;3.65;;;2.40;;
12118;SDS011;6123;48.864;9.200;2024-01-27T02:03:32;2.42;;;2.10;;
12118;SDS011;6123;48.864;9.200;2024-01-27T02:05:57;5.28;;;2.50;;
12118;SDS011;6123;48.864;9.200;2024-01-27T02:08:23;4.55;;;2.53;;
12118;SDS011;6123;48.864;9.200;2024-01-27T02:10:48;4.20;;;2.40;;
12118;SDS011;6123;48.864;9.200;2024-01-27T02:13:15;5.40;;;2.67;;
12118;SDS011;6123;48.864;9.200;2024-01-27T02:15:45;3.10;;;2.47;;
12118;SDS011;6123;48.864;9.200;2024-01-27T02:18:11;3.85;;;2.45;;
12118;SDS011;6123;48.864;9.200;2024-01-27T02:20:36;3.53;;;2.42;;
12118;SDS011;6123;48.864;9.200;2024-01-27T02:23:05;5.15;;;2.25;;
12118;SDS011;6123;48.864;9.200;2024-01-27T02:25:31;4.97;;;2.50;;
12118;SDS011;6123;48.864;9.200;2024-01-27T02:27:56;2.95;;;2.30;;
12118;SDS011;6123;48.864;9.200;2024-01-27T02:30:22;6.13;;;2.53;;
12118;SDS011;6123;48.864;9.200;2024-01-27T02:32:48;6.63;;;2.60;;
12118;SDS011;6123;48.864;9.200;2024-01-27T02:35:13;2.50;;;1.75;;
12118;SDS011;6123;48.864;9.200;2024-01-27T02:37:39;5.18;;;2.47;;
12118;SDS011;6123;48.864;9.200;2024-01-27T02:40:06;4.53;;;2.40;;
12118;SDS011;6123;48.864;9.200;2024-01-27T02:42:32;5.22;;;2.60;;
12118;SDS011;6123;48.864;9.200;2024-01-27T02:44:58;4.60;;;2.30;;
12118;SDS011;6123;48.864;9.200;2024-01-27T02:47:23;3.70;;;2.30;;
12118;SDS011;6123;48.864;9.200;2024-01-27T02:49:49;2.95;;;2.05;;
12118;SDS011;6123;48.864;9.200;2024-01-27T02:52:14;3.13;;;2.35;;
12118;SDS011;6123;48.864;9.200;2024-01-27T02:54:40;3.67;;;2.40;;
12118;SDS011;6123;48.864;9.200;2024-01-27T02:57:05;5.32;;;2.70;;
12118;SDS011;6123;48.864;9.200;2024-01-27T02:59:31;5.25;;;2.50;;
12118;SDS011;6123;48.864;9.200;2024-01-27T03:01:56;3.35;;;2.10;;
12118;SDS011;6123;48.864;9.200;2024-01-27T03:04:22;4.85;;;2.38;;
12118;SDS011;6123;48.864;9.200;2024-01-27T03:06:47;3.92;;;2.38;;
12118;SDS011;6123;48.864;9.200;2024-01-27T03:09:13;3.05;;;2.47;;
12118;SDS011;6123;48.864;9.200;2024-01-27T03:11:39;2.58;;;2.38;;
12118;SDS011;6123;48.864;9.200;2024-01-27T03:14:04;3.90;;;2.60;;
12118;SDS011;6123;48.864;9.200;2024-01-27T03:16:30;5.43;;;2.30;;
12118;SDS011;6123;48.864;9.200;2024-01-27T03:18:55;7.38;;;2.45;;
12118;SDS011;6123;48.864;9.200;2024-01-27T03:21:21;4.78;;;2.47;;
12118;SDS011;6123;48.864;9.200;2024-01-27T03:23:46;3.70;;;2.28;;
12118;SDS011;6123;48.864;9.200;2024-01-27T03:26:12;3.17;;;2.20;;
12118;SDS011;6123;48.864;9.200;2024-01-27T03:28:37;3.90;;;2.40;;
12118;SDS011;6123;48.864;9.200;2024-01-27T03:31:03;4.45;;;2.47;;
12118;SDS011;6123;48.864;9.200;2024-01-27T03:33:28;3.95;;;2.67;;
12118;SDS011;6123;48.864;9.200;2024-01-27T03:35:55;4.13;;;2.72;;
12118;SDS011;6123;48.864;9.200;2024-01-27T03:38:21;3.17;;;2.30;;
12118;SDS011;6123;48.864;9.200;2024-01-27T03:40:46;3.85;;;2.10;;
12118;SDS011;6123;48.864;9.200;2024-01-27T03:43:12;4.75;;;2.55;;
12118;SDS011;6123;48.864;9.200;2024-01-27T03:45:37;6.03;;;2.63;;
12118;SDS011;6123;48.864;9.200;2024-01-27T03:48:03;4.78;;;2.42;;
12118;SDS011;6123;48.864;9.200;2024-01-27T03:50:29;4.20;;;2.42;;
12118;SDS011;6123;48.864;9.200;2024-01-27T03:52:54;4.80;;;2.65;;
12118;SDS011;6123;48.864;9.200;2024-01-27T03:55:20;7.10;;;2.67;;
12118;SDS011;6123;48.864;9.200;2024-01-27T03:57:45;3.25;;;2.15;;
12118;SDS011;6123;48.864;9.200;2024-01-27T04:00:11;3.95;;;2.47;;
12118;SDS011;6123;48.864;9.200;2024-01-27T04:02:37;6.13;;;2.63;;
12118;SDS011;6123;48.864;9.200;2024-01-27T04:05:03;3.25;;;2.30;;
12118;SDS011;6123;48.864;9.200;2024-01-27T04:07:30;5.80;;;2.40;;
12118;SDS011;6123;48.864;9.200;2024-01-27T04:09:55;5.28;;;2.90;;
12118;SDS011;6123;48.864;9.200;2024-01-27T04:12:21;4.68;;;2.85;;
12118;SDS011;6123;48.864;9.200;2024-01-27T04:14:46;4.40;;;2.50;;
12118;SDS011;6123;48.864;9.200;2024-01-27T04:17:12;5.25;;;2.67;;
12118;SDS011;6123;48.864;9.200;2024-01-27T04:19:37;5.30;;;2.63;;
12118;SDS011;6123;48.864;9.200;2024-01-27T04:22:03;6.35;;;2.60;;
12118;SDS011;6123;48.864;9.200;2024-01-27T04:24:28;4.90;;;2.83;;
12118;SDS011;6123;48.864;9.200;2024-01-27T04:26:54;3.85;;;2.67;;
12118;SDS011;6123;48.864;9.200;2024-01-27T04:29:19;3.08;;;2.33;;
12118;SDS011;6123;48.864;9.200;2024-01-27T04:31:45;3.17;;;2.50;;
12118;SDS011;6123;48.864;9.200;2024-01-27T04:34:10;3.70;;;2.50;;
12118;SDS011;6123;48.864;9.200;2024-01-27T04:36:36;5.35;;;2.90;;
12118;SDS011;6123;48.864;9.200;2024-01-27T04:39:02;3.50;;;2.70;;
12118;SDS011;6123;48.864;9.200;2024-01-27T04:41:27;4.90;;;2.60;;
12118;SDS011;6123;48.864;9.200;2024-01-27T04:43:53;6.22;;;2.97;;
12118;SDS011;6123;48.864;9.200;2024-01-27T04:46:21;3.20;;;2.30;;
12118;SDS011;6123;48.864;9.200;2024-01-27T04:48:47;6.63;;;2.60;;
12118;SDS011;6123;48.864;9.200;2024-01-27T04:51:13;3.58;;;2.85;;
12118;SDS011;6123;48.864;9.200;2024-01-27T04:53:38;4.13;;;3.20;;
12118;SDS011;6123;48.864;9.200;2024-01-27T04:56:04;5.00;;;2.97;;
12118;SDS011;6123;48.864;9.200;2024-01-27T04:58:33;5.28;;;3.03;;
12118;SDS011;6123;48.864;9.200;2024-01-27T05:01:02;4.57;;;2.75;;
12118;SDS011;6123;48.864;9.200;2024-01-27T05:03:27;5.13;;;3.28;;
12118;SDS011;6123;48.864;9.200;2024-01-27T05:05:53;2.90;;;2.42;;
12118;SDS011;6123;48.864;9.200;2024-01-27T05:08:19;5.18;;;3.05;;
12118;SDS011;6123;48.864;9.200;2024-01-27T05:10:44;5.85;;;4.00;;
12118;SDS011;6123;48.864;9.200;2024-01-27T05:13:10;4.40;;;3.05;;
12118;SDS011;6123;48.864;9.200;2024-01-27T05:15:35;4.00;;;2.70;;
12118;SDS011;6123;48.864;9.200;2024-01-27T05:18:01;6.38;;;2.95;;
12118;SDS011;6123;48.864;9.200;2024-01-27T05:20:26;7.30;;;2.88;;
12118;SDS011;6123;48.864;9.200;2024-01-27T05:22:52;5.30;;;2.80;;
12118;SDS011;6123;48.864;9.200;2024-01-27T05:25:17;5.28;;;2.67;;
12118;SDS011;6123;48.864;9.200;2024-01-27T05:27:43;4.45;;;2.80;;
12118;SDS011;6123;48.864;9.200;2024-01-27T05:30:08;4.25;;;2.80;;
12118;SDS011;6123;48.864;9.200;2024-01-27T05:32:34;6.63;;;3.47;;
12118;SDS011;6123;48.864;9.200;2024-01-27T05:35:00;5.50;;;3.03;;
12118;SDS011;6123;48.864;9.200;2024-01-27T05:37:25;5.03;;;2.65;;
12118;SDS011;6123;48.864;9.200;2024-01-27T05:39:51;4.43;;;2.65;;
12118;SDS011;6123;48.864;9.200;2024-01-27T05:42:16;5.53;;;2.88;;
12118;SDS011;6123;48.864;9.200;2024-01-27T05:44:42;4.32;;;2.88;;
12118;SDS011;6123;48.864;9.200;2024-01-27T05:47:07;4.18;;;2.65;;
12118;SDS011;6123;48.864;9.200;2024-01-27T05:49:35;5.38;;;2.63;;
12118;SDS011;6123;48.864;9.200;2024-01-27T05:52:01;4.72;;;3.10;;
12118;SDS011;6123;48.864;9.200;2024-01-27T05:54:27;4.45;;;2.30;;
12118;SDS011;6123;48.864;9.200;2024-01-27T05:56:52;2.83;;;2.63;;
12118;SDS011;6123;48.864;9.200;2024-01-27T05:59:18;4.18;;;3.13;;
12118;SDS011;6123;48.864;9.200;2024-01-27T06:01:43;4.80;;;3.15;;
12118;SDS011;6123;48.864;9.200;2024-01-27T06:04:09;5.85;;;2.88;;
12118;SDS011;6123;48.864;9.200;2024-01-27T06:06:40;2.58;;;2.38;;
12118;SDS011;6123;48.864;9.200;2024-01-27T06:09:06;4.40;;;2.78;;
12118;SDS011;6123;48.864;9.200;2024-01-27T06:11:36;5.82;;;3.13;;
12118;SDS011;6123;48.864;9.200;2024-01-27T06:14:02;3.08;;;2.70;;
12118;SDS011;6123;48.864;9.200;2024-01-27T06:16:27;4.95;;;3.10;;
12118;SDS011;6123;48.864;9.200;2024-01-27T06:18:53;7.85;;;2.50;;
12118;SDS011;6123;48.864;9.200;2024-01-27T06:21:19;5.53;;;2.75;;
12118;SDS011;6123;48.864;9.200;2024-01-27T06:23:45;3.75;;;2.92;;
12118;SDS011;6123;48.864;9.200;2024-01-27T06:26:12;5.68;;;2.70;;
12118;SDS011;6123;48.864;9.200;2024-01-27T06:28:38;4.10;;;2.83;;
12118;SDS011;6123;48.864;9.200;2024-01-27T06:31:04;5.45;;;3.30;;
12118;SDS011;6123;48.864;9.200;2024-01-27T06:33:30;6.30;;;3.03;;
12118;SDS011;6123;48.864;9.200;2024-01-27T06:35:56;4.65;;;2.90;;
12118;SDS011;6123;48.864;9.200;2024-01-27T06:38:22;5.40;;;3.13;;
12118;SDS011;6123;48.864;9.200;2024-01-27T06:40:47;4.88;;;2.60;;
12118;SDS011;6123;48.864;9.200;2024-01-27T06:43:13;4.97;;;2.75;;
12118;SDS011;6123;48.864;9.200;2024-01-27T06:45:38;4.07;;;2.67;;
12118;SDS011;6123;48.864;9.200;2024-01-27T06:48:05;3.92;;;2.67;;
12118;SDS011;6123;48.864;9.200;2024-01-27T06:50:31;3.85;;;3.30;;
12118;SDS011;6123;48.864;9.200;2024-01-27T06:52:57;3.25;;;2.30;;
12118;SDS011;6123;48.864;9.200;2024-01-27T06:55:23;4.15;;;3.00;;
12118;SDS011;6123;48.864;9.200;2024-01-27T06:57:49;3.17;;;2.60;;
12118;SDS011;6123;48.864;9.200;2024-01-27T07:00:15;4.75;;;2.78;;
12118;SDS011;6123;48.864;9.200;2024-01-27T07:02:41;5.00;;;2.78;;
12118;SDS011;6123;48.864;9.200;2024-01-27T07:05:07;5.78;;;3.00;;
12118;SDS011;6123;48.864;9.200;2024-01-27T07:07:34;6.57;;;3.10;;
12118;SDS011;6123;48.864;9.200;2024-01-27T07:10:00;3.75;;;2.80;;
12118;SDS011;6123;48.864;9.200;2024-01-27T07:12:25;4.40;;;2.88;;
12118;SDS011;6123;48.864;9.200;2024-01-27T07:14:51;4.50;;;3.03;;
12118;SDS011;6123;48.864;9.200;2024-01-27T07:17:17;6.75;;;3.40;;
12118;SDS011;6123;48.864;9.200;2024-01-27T07:19:43;3.88;;;3.45;;
12118;SDS011;6123;48.864;9.200;2024-01-27T07:22:08;5.82;;;3.50;;
12118;SDS011;6123;48.864;9.200;2024-01-27T07:24:34;4.15;;;3.72;;
12118;SDS011;6123;48.864;9.200;2024-01-27T07:27:00;4.25;;;3.75;;
12118;SDS011;6123;48.864;9.200;2024-01-27T07:29:26;4.88;;;3.50;;
12118;SDS011;6123;48.864;9.200;2024-01-27T07:31:52;5.32;;;3.53;;
12118;SDS011;6123;48.864;9.200;2024-01-27T07:34:17;4.75;;;3.20;;
12118;SDS011;6123;48.864;9.200;2024-01-27T07:36:43;4.18;;;3.42;;
12118;SDS011;6123;48.864;9.200;2024-01-27T07:39:09;3.55;;;2.85;;
12118;SDS011;6123;48.864;9.200;2024-01-27T07:41:34;3.90;;;3.50;;
12118;SDS011;6123;48.864;9.200;2024-01-27T07:44:07;5.82;;;3.60;;
12118;SDS011;6123;48.864;9.200;2024-01-27T07:46:37;6.28;;;4.07;;
12118;SDS011;6123;48.864;9.200;2024-01-27T07:49:03;5.10;;;3.45;;
12118;SDS011;6123;48.864;9.200;2024-01-27T07:51:29;3.90;;;3.25;;
12118;SDS011;6123;48.864;9.200;2024-01-27T07:53:55;4.57;;;3.60;;
12118;SDS011;6123;48.864;9.200;2024-01-27T07:56:20;7.93;;;4.75;;
12118;SDS011;6123;48.864;9.200;2024-01-27T07:58:46;6.68;;;4.07;;
12118;SDS011;6123;48.864;9.200;2024-01-27T08:01:14;6.05;;;3.75;;
12118;SDS011;6123;48.864;9.200;2024-01-27T08:03:40;4.70;;;3.70;;
12118;SDS011;6123;48.864;9.200;2024-01-27T08:06:06;7.75;;;4.65;;
12118;SDS011;6123;48.864;9.200;2024-01-27T08:08:35;6.15;;;3.90;;
12118;SDS011;6123;48.864;9.200;2024-01-27T08:11:00;5.93;;;4.22;;
12118;SDS011;6123;48.864;9.200;2024-01-27T08:13:25;5.78;;;4.30;;
12118;SDS011;6123;48.864;9.200;2024-01-27T08:15:51;5.15;;;4.05;;
12118;SDS011;6123;48.864;9.200;2024-01-27T08:18:17;4.32;;;3.92;;
12118;SDS011;6123;48.864;9.200;2024-01-27T08:20:43;4.95;;;4.10;;
12118;SDS011;6123;48.864;9.200;2024-01-27T08:23:08;4.63;;;4.20;;
12118;SDS011;6123;48.864;9.200;2024-01-27T08:25:34;4.55;;;4.13;;
12118;SDS011;6123;48.864;9.200;2024-01-27T08:27:59;7.03;;;4.05;;
12118;SDS011;6123;48.864;9.200;2024-01-27T08:30:25;6.53;;;4.47;;
12118;SDS011;6123;48.864;9.200;2024-01-27T08:32:50;5.50;;;4.18;;
12118;SDS011;6123;48.864;9.200;2024-01-27T08:35:16;5.35;;;3.95;;
12118;SDS011;6123;48.864;9.200;2024-01-27T08:37:41;5.30;;;4.03;;
12118;SDS011;6123;48.864;9.200;2024-01-27T08:40:07;5.10;;;3.72;;
12118;SDS011;6123;48.864;9.200;2024-01-27T08:42:33;4.18;;;3.28;;
12118;SDS011;6123;48.864;9.200;2024-01-27T08:44:59;4.95;;;3.90;;
12118;SDS011;6123;48.864;9.200;2024-01-27T08:47:25;5.55;;;4.30;;
12118;SDS011;6123;48.864;9.200;2024-01-27T08:49:50;4.40;;;3.97;;
12118;SDS011;6123;48.864;9.200;2024-01-27T08:52:16;4.32;;;3.92;;
12118;SDS011;6123;48.864;9.200;2024-01-27T08:54:41;4.00;;;3.67;;
12118;SDS011;6123;48.864;9.200;2024-01-27T08:57:07;7.25;;;3.80;;
12118;SDS011;6123;48.864;9.200;2024-01-27T08:59:32;5.03;;;3.75;;
12118;SDS011;6123;48.864;9.200;2024-01-27T09:01:58;4.75;;;3.97;;
12118;SDS011;6123;48.864;9.200;2024-01-27T09:04:23;5.82;;;3.97;;
12118;SDS011;6123;48.864;9.200;2024-01-27T09:06:49;4.88;;;4.07;;
12118;SDS011;6123;48.864;9.200;2024-01-27T09:09:14;6.25;;;3.67;;
12118;SDS011;6123;48.864;9.200;2024-01-27T09:11:40;5.35;;;4.45;;
12118;SDS011;6123;48.864;9.200;2024-01-27T09:14:05;4.88;;;3.90;;
12118;SDS011;6123;48.864;9.200;2024-01-27T09:16:32;5.45;;;4.15;;
12118;SDS011;6123;48.864;9.200;2024-01-27T09:18:58;5.05;;;4.07;;
12118;SDS011;6123;48.864;9.200;2024-01-27T09:21:23;7.13;;;4.35;;
12118;SDS011;6123;48.864;9.200;2024-01-27T09:23:54;5.15;;;4.05;;
12118;SDS011;6123;48.864;9.200;2024-01-27T09:26:19;5.43;;;3.97;;
12118;SDS011;6123;48.864;9.200;2024-01-27T09:28:45;5.97;;;4.18;;
12118;SDS011;6123;48.864;9.200;2024-01-27T09:31:18;5.72;;;3.97;;
12118;SDS011;6123;48.864;9.200;2024-01-27T09:33:51;5.18;;;4.30;;
12118;SDS011;6123;48.864;9.200;2024-01-27T09:36:18;4.95;;;4.38;;
12118;SDS011;6123;48.864;9.200;2024-01-27T09:38:44;6.57;;;4.57;;
12118;SDS011;6123;48.864;9.200;2024-01-27T09:41:11;5.25;;;4.00;;
12118;SDS011;6123;48.864;9.200;2024-01-27T09:43:39;5.28;;;4.45;;
12118;SDS011;6123;48.864;9.200;2024-01-27T09:46:09;6.57;;;4.10;;
12118;SDS011;6123;48.864;9.200;2024-01-27T09:48:35;5.72;;;4.72;;
12118;SDS011;6123;48.864;9.200;2024-01-27T09:51:01;6.43;;;4.35;;
12118;SDS011;6123;48.864;9.200;2024-01-27T09:53:28;4.47;;;3.88;;
12118;SDS011;6123;48.864;9.200;2024-01-27T09:55:54;5.72;;;4.00;;
12118;SDS011;6123;48.864;9.200;2024-01-27T09:58:23;5.05;;;3.92;;
12118;SDS011;6123;48.864;9.200;2024-01-27T10:00:52;5.07;;;4.13;;
12118;SDS011;6123;48.864;9.200;2024-01-27T10:03:27;5.30;;;4.30;;
12118;SDS011;6123;48.864;9.200;2024-01-27T10:05:55;8.98;;;4.30;;
12118;SDS011;6123;48.864;9.200;2024-01-27T10:08:22;5.22;;;4.03;;
12118;SDS011;6123;48.864;9.200;2024-01-27T10:10:53;7.80;;;4.38;;
12118;SDS011;6123;48.864;9.200;2024-01-27T10:13:21;5.00;;;3.85;;
12118;SDS011;6123;48.864;9.200;2024-01-27T10:16:00;9.25;;;3.83;;
12118;SDS011;6123;48.864;9.200;2024-01-27T10:18:29;7.05;;;4.45;;
12118;SDS011;6123;48.864;9.200;2024-01-27T10:20:56;5.80;;;4.20;;
12118;SDS011;6123;48.864;9.200;2024-01-27T10:23:22;6.18;;;3.80;;
12118;SDS011;6123;48.864;9.200;2024-01-27T10:25:48;7.65;;;4.25;;
12118;SDS011;6123;48.864;9.200;2024-01-27T10:28:15;4.80;;;4.07;;
12118;SDS011;6123;48.864;9.200;2024-01-27T10:30:40;4.53;;;3.88;;
12118;SDS011;6123;48.864;9.200;2024-01-27T10:33:08;5.57;;;4.18;;
12118;SDS011;6123;48.864;9.200;2024-01-27T10:35:35;6.60;;;4.63;;
12118;SDS011;6123;48.864;9.200;2024-01-27T10:38:01;5.50;;;4.13;;
12118;SDS011;6123;48.864;9.200;2024-01-27T10:40:27;4.70;;;4.28;;
12118;SDS011;6123;48.864;9.200;2024-01-27T10:43:05;6.65;;;4.38;;
12118;SDS011;6123;48.864;9.200;2024-01-27T10:45:36;5.05;;;4.55;;
12118;SDS011;6123;48.864;9.200;2024-01-27T10:48:03;6.32;;;4.22;;
12118;SDS011;6123;48.864;9.200;2024-01-27T10:50:30;5.43;;;4.90;;
12118;SDS011;6123;48.864;9.200;2024-01-27T10:53:02;7.22;;;4.40;;
12118;SDS011;6123;48.864;9.200;2024-01-27T10:55:30;7.65;;;4.30;;
12118;SDS011;6123;48.864;9.200;2024-01-27T10:57:58;5.60;;;4.25;;
12118;SDS011;6123;48.864;9.200;2024-01-27T11:00:26;6.93;;;4.18;;
12118;SDS011;6123;48.864;9.200;2024-01-27T11:02:53;9.75;;;4.20;;
12118;SDS011;6123;48.864;9.200;2024-01-27T11:05:22;6.45;;;4.25;;
12118;SDS011;6123;48.864;9.200;2024-01-27T11:07:49;4.88;;;3.78;;
12118;SDS011;6123;48.864;9.200;2024-01-27T11:10:16;7.05;;;3.92;;
12118;SDS011;6123;48.864;9.200;2024-01-27T11:12:43;8.13;;;3.40;;
12118;SDS011;6123;48.864;9.200;2024-01-27T11:15:09;7.45;;;3.80;;
12118;SDS011;6123;48.864;9.200;2024-01-27T11:17:38;6.88;;;3.70;;
12118;SDS011;6123;48.864;9.200;2024-01-27T11:20:05;6.32;;;4.13;;
12118;SDS011;6123;48.864;9.200;2024-01-27T11:22:40;8.40;;;3.75;;
12118;SDS011;6123;48.864;9.200;2024-01-27T11:27:36;5.35;;;3.58;;
12118;SDS011;6123;48.864;9.200;2024-01-27T11:30:03;5.15;;;3.42;;
12118;SDS011;6123;48.864;9.200;2024-01-27T11:32:30;5.47;;;3.65;;
12118;SDS011;6123;48.864;9.200;2024-01-27T11:34:56;6.45;;;3.95;;
12118;SDS011;6123;48.864;9.200;2024-01-27T11:37:22;7.43;;;4.25;;
12118;SDS011;6123;48.864;9.200;2024-01-27T11:39:51;8.38;;;3.70;;
12118;SDS011;6123;48.864;9.200;2024-01-27T11:42:17;5.88;;;3.95;;
12118;SDS011;6123;48.864;9.200;2024-01-27T11:44:43;5.97;;;3.88;;
12118;SDS011;6123;48.864;9.200;2024-01-27T11:47:19;6.15;;;3.88;;
12118;SDS011;6123;48.864;9.200;2024-01-27T11:49:51;6.13;;;3.42;;
12118;SDS011;6123;48.864;9.200;2024-01-27T11:52:18;5.47;;;3.60;;
12118;SDS011;6123;48.864;9.200;2024-01-27T11:54:44;7.28;;;3.60;;
12118;SDS011;6123;48.864;9.200;2024-01-27T11:57:09;7.82;;;3.50;;
12118;SDS011;6123;48.864;9.200;2024-01-27T11:59:35;5.38;;;3.50;;
12118;SDS011;6123;48.864;9.200;2024-01-27T12:02:01;6.05;;;3.25;;
12118;SDS011;6123;48.864;9.200;2024-01-27T12:04:27;5.65;;;3.35;;
12118;SDS011;6123;48.864;9.200;2024-01-27T12:06:53;5.63;;;3.58;;
12118;SDS011;6123;48.864;9.200;2024-01-27T12:09:19;4.40;;;3.28;;
12118;SDS011;6123;48.864;9.200;2024-01-27T12:11:45;6.47;;;3.83;;
12118;SDS011;6123;48.864;9.200;2024-01-27T12:14:11;4.85;;;3.35;;
12118;SDS011;6123;48.864;9.200;2024-01-27T12:16:37;10.30;;;3.78;;
12118;SDS011;6123;48.864;9.200;2024-01-27T12:19:03;4.82;;;3.33;;
12118;SDS011;6123;48.864;9.200;2024-01-27T12:21:29;7.93;;;3.38;;
12118;SDS011;6123;48.864;9.200;2024-01-27T12:23:55;7.60;;;3.60;;
12118;SDS011;6123;48.864;9.200;2024-01-27T12:26:25;4.60;;;3.20;;
12118;SDS011;6123;48.864;9.200;2024-01-27T12:28:51;4.40;;;2.92;;
12118;SDS011;6123;48.864;9.200;2024-01-27T12:31:17;5.82;;;3.22;;
12118;SDS011;6123;48.864;9.200;2024-01-27T12:33:53;4.07;;;2.85;;
12118;SDS011;6123;48.864;9.200;2024-01-27T12:36:20;7.35;;;3.20;;
12118;SDS011;6123;48.864;9.200;2024-01-27T12:38:59;4.82;;;3.22;;
12118;SDS011;6123;48.864;9.200;2024-01-27T12:41:26;3.92;;;3.35;;
12118;SDS011;6123;48.864;9.200;2024-01-27T12:43:53;5.13;;;3.08;;
12118;SDS011;6123;48.864;9.200;2024-01-27T12:46:19;5.25;;;3.47;;
12118;SDS011;6123;48.864;9.200;2024-01-27T12:48:45;7.53;;;3.85;;
12118;SDS011;6123;48.864;9.200;2024-01-27T12:51:11;5.88;;;3.70;;
12118;SDS011;6123;48.864;9.200;2024-01-27T12:53:40;6.13;;;3.78;;
12118;SDS011;6123;48.864;9.200;2024-01-27T12:56:09;7.57;;;3.80;;
12118;SDS011;6123;48.864;9.200;2024-01-27T12:58:35;5.63;;;3.97;;
12118;SDS011;6123;48.864;9.200;2024-01-27T13:01:00;5.07;;;3.35;;
12118;SDS011;6123;48.864;9.200;2024-01-27T13:03:26;7.63;;;4.07;;
12118;SDS011;6123;48.864;9.200;2024-01-27T13:05:51;6.30;;;3.67;;
12118;SDS011;6123;48.864;9.200;2024-01-27T13:08:18;9.10;;;4.07;;
12118;SDS011;6123;48.864;9.200;2024-01-27T13:10:43;6.97;;;3.67;;
12118;SDS011;6123;48.864;9.200;2024-01-27T13:13:09;5.82;;;3.42;;
12118;SDS011;6123;48.864;9.200;2024-01-27T13:15:35;6.03;;;3.53;;
12118;SDS011;6123;48.864;9.200;2024-01-27T13:18:00;5.38;;;3.35;;
12118;SDS011;6123;48.864;9.200;2024-01-27T13:20:26;6.72;;;3.00;;
12118;SDS011;6123;48.864;9.200;2024-01-27T13:22:51;4.45;;;2.85;;
12118;SDS011;6123;48.864;9.200;2024-01-27T13:25:18;4.45;;;3.55;;
12118;SDS011;6123;48.864;9.200;2024-01-27T13:27:44;4.55;;;3.05;;
12118;SDS011;6123;48.864;9.200;2024-01-27T13:30:10;4.18;;;2.70;;
12118;SDS011;6123;48.864;9.200;2024-01-27T13:32:37;5.55;;;3.25;;
12118;SDS011;6123;48.864;9.200;2024-01-27T13:35:03;3.88;;;2.58;;
12118;SDS011;6123;48.864;9.200;2024-01-27T13:37:29;5.32;;;2.60;;
12118;SDS011;6123;48.864;9.200;2024-01-27T13:39:58;7.03;;;2.70;;
12118;SDS011;6123;48.864;9.200;2024-01-27T13:42:24;3.92;;;2.65;;
12118;SDS011;6123;48.864;9.200;2024-01-27T13:44:50;7.00;;;2.90;;
12118;SDS011;6123;48.864;9.200;2024-01-27T13:47:15;5.32;;;2.90;;
12118;SDS011;6123;48.864;9.200;2024-01-27T13:49:42;4.43;;;2.90;;
12118;SDS011;6123;48.864;9.200;2024-01-27T13:52:08;6.03;;;2.65;;
12118;SDS011;6123;48.864;9.200;2024-01-27T13:54:33;4.95;;;2.60;;
12118;SDS011;6123;48.864;9.200;2024-01-27T13:57:00;5.30;;;2.33;;
12118;SDS011;6123;48.864;9.200;2024-01-27T13:59:26;4.40;;;2.20;;
12118;SDS011;6123;48.864;9.200;2024-01-27T14:01:51;5.90;;;2.30;;
12118;SDS011;6123;48.864;9.200;2024-01-27T14:04:18;4.38;;;2.92;;
12118;SDS011;6123;48.864;9.200;2024-01-27T14:06:43;4.25;;;2.78;;
12118;SDS011;6123;48.864;9.200;2024-01-27T14:09:09;5.15;;;3.88;;
12118;SDS011;6123;48.864;9.200;2024-01-27T14:11:35;6.93;;;3.50;;
12118;SDS011;6123;48.864;9.200;2024-01-27T14:14:00;5.55;;;2.80;;
12118;SDS011;6123;48.864;9.200;2024-01-27T14:16:26;4.90;;;3.03;;
12118;SDS011;6123;48.864;9.200;2024-01-27T14:18:53;4.93;;;2.47;;
12118;SDS011;6123;48.864;9.200;2024-01-27T14:21:19;4.30;;;2.78;;
12118;SDS011;6123;48.864;9.200;2024-01-27T14:23:44;3.75;;;2.80;;
12118;SDS011;6123;48.864;9.200;2024-01-27T14:26:10;3.60;;;2.33;;
12118;SDS011;6123;48.864;9.200;2024-01-27T14:28:40;3.65;;;2.40;;
12118;SDS011;6123;48.864;9.200;2024-01-27T14:31:06;5.38;;;2.90;;
12118;SDS011;6123;48.864;9.200;2024-01-27T14:33:32;4.13;;;2.70;;
12118;SDS011;6123;48.864;9.200;2024-01-27T14:35:58;5.68;;;2.92;;
12118;SDS011;6123;48.864;9.200;2024-01-27T14:38:23;4.90;;;2.30;;
12118;SDS011;6123;48.864;9.200;2024-01-27T14:40:49;4.13;;;2.45;;
12118;SDS011;6123;48.864;9.200;2024-01-27T14:43:15;5.20;;;2.85;;
12118;SDS011;6123;48.864;9.200;2024-01-27T14:45:42;3.85;;;2.40;;
12118;SDS011;6123;48.864;9.200;2024-01-27T14:48:09;6.25;;;3.03;;
12118;SDS011;6123;48.864;9.200;2024-01-27T14:50:35;3.83;;;2.45;;
12118;SDS011;6123;48.864;9.200;2024-01-27T14:53:00;4.80;;;2.75;;
12118;SDS011;6123;48.864;9.200;2024-01-27T14:55:30;5.65;;;3.03;;
12118;SDS011;6123;48.864;9.200;2024-01-27T14:57:57;3.80;;;2.63;;